createdAt,value
2018-12-23T00:00:02.187Z,18.66
2018-12-23T00:01:02.813Z,18.53
2018-12-23T00:02:03.436Z,18.52
2018-12-23T00:03:04.009Z,18.50
2018-12-23T00:04:04.584Z,18.63
2018-12-23T00:05:11.429Z,18.47
2018-12-23T00:06:06.730Z,18.56
2018-12-23T00:07:07.309Z,18.47
2018-12-23T00:08:07.937Z,18.62
2018-12-23T00:09:08.512Z,18.49
2018-12-23T00:10:09.086Z,18.59
2018-12-23T00:11:09.660Z,18.66
2018-12-23T00:12:10.286Z,18.55
2018-12-23T00:13:10.862Z,18.59
2018-12-23T00:14:11.437Z,18.56
2018-12-23T00:15:12.014Z,18.60
2018-12-23T00:16:12.588Z,18.63
2018-12-23T00:17:13.164Z,18.62
2018-12-23T00:18:13.787Z,18.60
2018-12-23T00:19:14.362Z,18.73
2018-12-23T00:20:14.936Z,18.77
2018-12-23T00:21:15.511Z,18.74
2018-12-23T00:22:16.085Z,18.78
2018-12-23T00:23:16.662Z,18.63
2018-12-23T00:24:17.237Z,18.63
2018-12-23T00:25:17.854Z,18.60
2018-12-23T00:26:18.478Z,18.63
2018-12-23T00:27:19.105Z,18.60
2018-12-23T00:28:19.680Z,18.55
2018-12-23T00:29:20.256Z,18.49
2018-12-23T00:30:20.932Z,18.56
2018-12-23T00:31:21.580Z,18.62
2018-12-23T00:32:22.208Z,18.60
2018-12-23T00:33:22.784Z,18.62
2018-12-23T00:34:23.359Z,18.63
2018-12-23T00:35:24.037Z,18.58
2018-12-23T00:36:24.614Z,18.59
2018-12-23T00:37:25.192Z,18.53
2018-12-23T00:38:25.772Z,18.52
2018-12-23T00:39:26.343Z,18.47
2018-12-23T00:40:26.920Z,18.66
2018-12-23T00:41:27.498Z,18.41
2018-12-23T00:42:28.073Z,18.56
2018-12-23T00:43:28.648Z,18.52
2018-12-23T00:44:29.222Z,18.52
2018-12-23T00:45:29.797Z,18.41
2018-12-23T00:46:30.373Z,18.47
2018-12-23T00:47:30.948Z,18.41
2018-12-23T00:48:31.523Z,18.43
2018-12-23T00:49:32.151Z,18.38
2018-12-23T00:50:32.726Z,18.35
2018-12-23T00:51:33.352Z,18.34
2018-12-23T00:52:33.927Z,18.31
2018-12-23T00:53:34.503Z,18.26
2018-12-23T00:54:35.125Z,18.25
2018-12-23T00:55:35.702Z,18.25
2018-12-23T00:56:36.275Z,18.20
2018-12-23T00:57:36.850Z,18.16
2018-12-23T00:58:37.427Z,18.18
2018-12-23T00:59:38.000Z,18.11
2018-12-23T01:00:38.575Z,18.19
2018-12-23T01:01:39.150Z,18.23
2018-12-23T01:02:39.726Z,18.18
2018-12-23T01:03:40.306Z,18.07
2018-12-23T01:04:40.876Z,18.11
2018-12-23T01:05:41.451Z,18.10
2018-12-23T01:06:42.075Z,18.16
2018-12-23T01:07:42.649Z,18.05
2018-12-23T01:08:43.224Z,18.08
2018-12-23T01:09:43.801Z,17.92
2018-12-23T01:10:44.377Z,18.01
2018-12-23T01:11:44.952Z,18.03
2018-12-23T01:12:45.529Z,17.97
2018-12-23T01:13:46.307Z,18.01
2018-12-23T01:14:46.931Z,17.92
2018-12-23T01:15:47.508Z,17.94
2018-12-23T01:16:48.083Z,17.98
2018-12-23T01:17:48.662Z,17.90
2018-12-23T01:18:49.237Z,17.89
2018-12-23T01:19:49.813Z,17.95
2018-12-23T01:20:50.391Z,17.86
2018-12-23T01:21:50.963Z,17.83
2018-12-23T01:22:51.538Z,17.90
2018-12-23T01:23:52.114Z,17.80
2018-12-23T01:24:52.688Z,17.85
2018-12-23T01:25:53.314Z,17.83
2018-12-23T01:26:53.889Z,17.76
2018-12-23T01:27:54.465Z,17.71
2018-12-23T01:28:55.043Z,17.76
2018-12-23T01:29:55.617Z,17.74
2018-12-23T01:30:56.193Z,17.74
2018-12-23T01:31:56.767Z,17.71
2018-12-23T01:32:57.342Z,17.74
2018-12-23T01:33:57.915Z,17.72
2018-12-23T01:34:58.539Z,17.68
2018-12-23T01:35:59.112Z,17.72
2018-12-23T01:36:59.773Z,17.70
2018-12-23T01:41:46.449Z,17.64
2018-12-23T01:45:29.674Z,17.59
2018-12-23T01:46:30.293Z,17.57
2018-12-23T01:48:58.097Z,17.57
2018-12-23T01:52:59.313Z,17.49
2018-12-23T01:53:59.922Z,17.44
2018-12-23T01:57:57.136Z,17.42
2018-12-23T02:09:35.011Z,17.31
2018-12-23T02:10:35.580Z,17.31
2018-12-23T02:13:47.445Z,17.33
2018-12-23T02:14:48.013Z,17.30
2018-12-23T02:15:48.580Z,17.30
2018-12-23T02:16:49.347Z,17.31
2018-12-23T02:17:49.914Z,17.24
2018-12-23T02:19:04.289Z,17.38
2018-12-23T02:20:18.619Z,17.30
2018-12-23T02:21:19.185Z,17.20
2018-12-23T02:22:19.756Z,17.24
2018-12-23T02:23:20.324Z,17.20
2018-12-23T02:29:46.436Z,17.26
2018-12-23T02:36:30.019Z,17.22
2018-12-23T02:37:44.346Z,17.09
2018-12-23T02:39:11.944Z,17.16
2018-12-23T02:40:56.971Z,17.09
2018-12-23T02:44:42.199Z,17.14
2018-12-23T02:45:42.765Z,17.19
2018-12-23T02:48:12.624Z,17.11
2018-12-23T02:49:13.190Z,17.04
2018-12-23T02:50:13.758Z,17.06
2018-12-23T03:03:54.462Z,16.97
2018-12-23T03:04:55.079Z,17.05
2018-12-23T03:14:10.198Z,16.90
2018-12-23T03:15:10.771Z,16.93
2018-12-23T03:17:42.687Z,16.93
2018-12-23T03:19:21.048Z,16.87
2018-12-23T03:22:34.847Z,16.91
2018-12-23T03:44:12.168Z,16.89
2018-12-23T03:56:35.518Z,16.84
2018-12-23T03:57:36.083Z,16.81
2018-12-23T03:58:36.703Z,16.76
2018-12-23T03:59:37.271Z,16.86
2018-12-23T04:02:33.059Z,16.72
2018-12-23T04:29:00.098Z,16.61
2018-12-23T04:41:19.502Z,16.68
2018-12-23T04:42:20.067Z,16.58
2018-12-23T04:43:20.683Z,16.68
2018-12-23T04:44:21.298Z,16.61
2018-12-23T04:45:21.864Z,16.61
2018-12-23T04:46:22.432Z,16.61
2018-12-23T04:47:22.999Z,16.65
2018-12-23T04:48:23.570Z,16.60
2018-12-23T04:49:24.139Z,16.53
2018-12-23T04:50:24.708Z,16.56
2018-12-23T04:51:25.274Z,16.58
2018-12-23T04:54:37.092Z,16.57
2018-12-23T04:55:37.657Z,16.49
2018-12-23T04:56:38.228Z,16.54
2018-12-23T04:57:38.794Z,16.54
2018-12-23T04:58:39.360Z,16.57
2018-12-23T04:59:39.934Z,16.54
2018-12-23T05:00:40.592Z,16.56
2018-12-23T05:01:41.209Z,16.56
2018-12-23T05:02:41.782Z,16.53
2018-12-23T05:03:43.222Z,16.56
2018-12-23T05:04:43.860Z,16.64
2018-12-23T05:05:44.428Z,16.47
2018-12-23T05:08:40.270Z,16.58
2018-12-23T05:09:40.837Z,16.56
2018-12-23T05:14:14.093Z,16.49
2018-12-23T05:15:14.660Z,16.41
2018-12-23T05:16:15.227Z,16.47
2018-12-23T05:17:15.795Z,16.50
2018-12-23T05:18:16.405Z,16.47
2018-12-23T05:19:17.026Z,16.43
2018-12-23T05:20:17.637Z,16.43
2018-12-23T05:21:18.251Z,16.43
2018-12-23T05:22:18.819Z,16.43
2018-12-23T05:23:19.387Z,16.42
2018-12-23T05:24:19.955Z,16.51
2018-12-23T05:25:20.520Z,16.43
2018-12-23T05:26:21.090Z,16.43
2018-12-23T05:27:21.657Z,16.42
2018-12-23T05:28:22.277Z,16.46
2018-12-23T05:29:22.846Z,16.47
2018-12-23T05:31:17.227Z,16.46
2018-12-23T05:32:17.795Z,16.42
2018-12-23T05:33:18.362Z,16.43
2018-12-23T05:34:18.932Z,16.47
2018-12-23T05:35:19.504Z,16.42
2018-12-23T05:36:20.159Z,16.46
2018-12-23T05:37:20.727Z,16.47
2018-12-23T05:38:21.300Z,16.43
2018-12-23T05:39:21.865Z,16.46
2018-12-23T05:40:22.432Z,16.42
2018-12-23T06:05:02.518Z,16.47
2018-12-23T06:06:03.084Z,16.47
2018-12-23T06:07:45.499Z,16.53
2018-12-23T06:08:46.073Z,16.43
2018-12-23T06:09:46.680Z,16.46
2018-12-23T06:11:01.062Z,16.46
2018-12-23T06:12:31.412Z,16.41
2018-12-23T06:13:31.979Z,16.43
2018-12-23T06:14:32.546Z,16.47
2018-12-23T06:15:33.114Z,16.47
2018-12-23T06:16:33.679Z,16.46
2018-12-23T06:22:21.535Z,16.60
2018-12-23T06:23:22.103Z,16.49
2018-12-23T06:24:22.668Z,16.53
2018-12-23T06:25:23.285Z,16.46
2018-12-23T06:26:23.852Z,16.42
2018-12-23T06:27:24.419Z,16.46
2018-12-23T06:28:25.037Z,16.42
2018-12-23T06:29:25.605Z,16.43
2018-12-23T06:30:26.273Z,16.49
2018-12-23T06:31:27.040Z,16.39
2018-12-23T06:32:57.492Z,16.43
2018-12-23T06:34:11.820Z,16.35
2018-12-23T06:44:44.975Z,16.39
2018-12-23T06:46:58.029Z,16.42
2018-12-23T06:48:42.994Z,16.31
2018-12-23T06:49:43.559Z,16.36
2018-12-23T06:50:44.177Z,16.35
2018-12-23T06:51:44.744Z,16.36
2018-12-23T06:52:45.312Z,16.38
2018-12-23T06:53:45.879Z,16.33
2018-12-23T06:54:46.447Z,16.36
2018-12-23T06:55:47.014Z,16.46
2018-12-23T06:56:47.581Z,16.41
2018-12-23T06:58:01.913Z,16.35
2018-12-23T06:59:02.480Z,16.43
2018-12-23T07:01:04.908Z,16.35
2018-12-23T07:02:05.437Z,16.33
2018-12-23T07:03:06.005Z,16.33
2018-12-23T07:04:06.572Z,16.38
2018-12-23T07:05:07.142Z,16.29
2018-12-23T07:06:07.758Z,16.36
2018-12-23T07:07:38.154Z,16.32
2018-12-23T07:08:38.720Z,16.21
2018-12-23T07:12:23.918Z,16.32
2018-12-23T07:13:24.535Z,16.29
2018-12-23T07:14:25.159Z,16.24
2018-12-23T07:15:25.763Z,16.24
2018-12-23T07:16:26.331Z,16.21
2018-12-23T07:17:44.666Z,16.23
2018-12-23T07:18:45.239Z,16.26
2018-12-23T07:19:45.802Z,16.15
2018-12-23T07:20:46.427Z,16.28
2018-12-23T07:22:00.760Z,16.12
2018-12-23T07:24:15.675Z,16.23
2018-12-23T07:25:51.282Z,16.23
2018-12-23T07:27:25.638Z,16.24
2018-12-23T07:29:54.763Z,16.20
2018-12-23T07:30:55.380Z,16.17
2018-12-23T07:31:55.950Z,16.17
2018-12-23T07:32:56.515Z,16.09
2018-12-23T07:34:10.845Z,16.21
2018-12-23T07:35:11.413Z,16.21
2018-12-23T07:37:30.431Z,16.20
2018-12-23T07:43:05.560Z,16.15
2018-12-23T07:45:13.154Z,16.10
2018-12-23T07:47:42.950Z,16.24
2018-12-23T07:48:43.568Z,16.04
2018-12-23T07:49:44.135Z,16.09
2018-12-23T07:56:47.836Z,16.05
2018-12-23T07:57:48.402Z,16.01
2018-12-23T07:58:49.161Z,16.01
2018-12-23T07:59:49.732Z,15.94
2018-12-23T08:04:06.934Z,16.00
2018-12-23T08:07:22.751Z,15.98
2018-12-23T08:08:23.315Z,16.00
2018-12-23T08:14:02.039Z,15.97
2018-12-23T08:15:16.372Z,16.00
2018-12-23T08:16:16.985Z,15.91
2018-12-23T08:17:17.601Z,15.95
2018-12-23T08:19:33.585Z,15.84
2018-12-23T08:20:34.149Z,15.88
2018-12-23T08:26:12.856Z,15.88
2018-12-23T08:28:03.228Z,15.91
2018-12-23T08:29:03.798Z,15.90
2018-12-23T08:30:04.404Z,15.90
2018-12-23T08:31:04.971Z,15.97
2018-12-23T08:32:05.539Z,15.92
2018-12-23T08:36:08.855Z,15.86
2018-12-23T08:37:09.463Z,15.88
2018-12-23T08:38:10.077Z,15.90
2018-12-23T08:39:10.644Z,15.94
2018-12-23T08:40:11.211Z,15.91
2018-12-23T08:41:11.833Z,15.92
2018-12-23T08:44:35.662Z,15.98
2018-12-23T08:45:36.230Z,15.98
2018-12-23T08:47:10.620Z,15.95
2018-12-23T08:48:11.190Z,15.88
2018-12-23T08:49:11.795Z,15.95
2018-12-23T08:50:12.365Z,15.95
2018-12-23T08:55:22.052Z,15.95
2018-12-23T08:56:44.444Z,15.95
2018-12-23T08:58:10.788Z,15.98
2018-12-23T09:00:13.176Z,15.97
2018-12-23T09:03:10.224Z,15.98
2018-12-23T09:04:10.827Z,16.02
2018-12-23T09:05:11.394Z,15.91
2018-12-23T09:09:40.399Z,15.98
2018-12-23T09:10:41.015Z,15.88
2018-12-23T09:11:42.996Z,15.92
2018-12-23T09:12:43.143Z,15.98
2018-12-23T09:13:43.705Z,15.95
2018-12-23T09:14:44.275Z,15.98
2018-12-23T09:15:44.887Z,15.98
2018-12-23T09:16:45.542Z,16.00
2018-12-23T09:17:46.161Z,15.98
2018-12-23T09:18:46.728Z,16.05
2018-12-23T09:19:47.297Z,16.05
2018-12-23T09:24:19.002Z,16.12
2018-12-23T09:26:46.762Z,16.04
2018-12-23T09:27:47.379Z,16.08
2018-12-23T09:33:14.410Z,16.15
2018-12-23T09:34:15.028Z,16.12
2018-12-23T09:35:34.615Z,16.17
2018-12-23T09:37:37.762Z,16.09
2018-12-23T09:38:38.331Z,16.26
2018-12-23T09:42:25.660Z,16.26
2018-12-23T09:45:33.203Z,16.17
2018-12-23T09:46:36.798Z,16.16
2018-12-23T09:48:09.943Z,16.31
2018-12-23T09:49:10.509Z,16.23
2018-12-23T09:51:40.254Z,16.17
2018-12-23T09:52:40.870Z,16.26
2018-12-23T09:53:41.487Z,16.21
2018-12-23T09:54:42.053Z,16.21
2018-12-23T09:55:42.620Z,16.15
2018-12-23T09:56:43.187Z,16.26
2018-12-23T09:57:43.754Z,16.15
2018-12-23T09:58:44.322Z,16.24
2018-12-23T09:59:44.889Z,16.20
2018-12-23T10:00:45.455Z,16.26
2018-12-23T10:02:39.833Z,16.23
2018-12-23T10:03:40.400Z,16.16
2018-12-23T10:04:40.967Z,16.29
2018-12-23T10:05:55.300Z,16.29
2018-12-23T10:10:18.417Z,16.36
2018-12-23T10:12:10.047Z,16.28
2018-12-23T10:13:10.611Z,16.33
2018-12-23T10:14:11.182Z,16.23
2018-12-23T10:15:11.789Z,16.35
2018-12-23T10:16:12.355Z,16.33
2018-12-23T10:17:12.922Z,16.38
2018-12-23T10:18:13.533Z,16.32
2018-12-23T10:19:14.150Z,16.31
2018-12-23T10:20:28.478Z,16.42
2018-12-23T10:21:29.045Z,16.35
2018-12-23T10:22:29.613Z,16.35
2018-12-23T10:23:30.183Z,16.32
2018-12-23T10:24:30.749Z,16.35
2018-12-23T10:25:31.317Z,16.35
2018-12-23T10:26:31.936Z,16.41
2018-12-23T10:27:32.554Z,16.43
2018-12-23T10:28:33.130Z,16.41
2018-12-23T10:29:33.742Z,16.51
2018-12-23T10:30:34.308Z,16.60
2018-12-23T10:31:34.918Z,16.54
2018-12-23T10:32:35.485Z,16.60
2018-12-23T10:33:36.053Z,16.60
2018-12-23T10:34:36.622Z,16.65
2018-12-23T10:35:37.190Z,16.65
2018-12-23T10:36:37.810Z,16.61
2018-12-23T10:37:38.378Z,16.65
2018-12-23T10:38:38.949Z,16.61
2018-12-23T10:39:39.515Z,16.69
2018-12-23T10:40:40.084Z,16.58
2018-12-23T10:41:40.654Z,16.65
2018-12-23T10:42:41.272Z,16.71
2018-12-23T10:43:41.840Z,16.74
2018-12-23T10:44:42.410Z,16.72
2018-12-23T10:45:43.028Z,16.69
2018-12-23T10:46:43.598Z,16.81
2018-12-23T10:47:44.168Z,16.79
2018-12-23T10:48:44.738Z,16.76
2018-12-23T10:49:45.306Z,16.84
2018-12-23T10:50:45.876Z,16.79
2018-12-23T10:51:46.442Z,16.93
2018-12-23T10:52:47.013Z,16.99
2018-12-23T10:53:47.582Z,16.97
2018-12-23T10:54:48.199Z,16.78
2018-12-23T10:55:48.765Z,16.96
2018-12-23T10:56:49.337Z,16.93
2018-12-23T10:57:49.906Z,16.93
2018-12-23T10:58:50.473Z,16.97
2018-12-23T10:59:51.042Z,16.93
2018-12-23T11:00:51.609Z,16.96
2018-12-23T11:01:52.227Z,16.93
2018-12-23T11:02:52.796Z,16.94
2018-12-23T11:03:53.418Z,16.97
2018-12-23T11:04:53.987Z,16.90
2018-12-23T11:05:54.555Z,16.89
2018-12-23T11:06:55.124Z,16.91
2018-12-23T11:07:55.694Z,17.04
2018-12-23T11:08:56.261Z,16.89
2018-12-23T11:10:01.975Z,16.87
2018-12-23T11:10:58.394Z,16.89
2018-12-23T11:11:58.965Z,16.87
2018-12-23T11:12:59.585Z,16.96
2018-12-23T11:14:00.157Z,16.93
2018-12-23T11:15:00.730Z,16.93
2018-12-23T11:16:01.298Z,16.93
2018-12-23T11:17:02.016Z,16.99
2018-12-23T11:18:02.588Z,16.91
2018-12-23T11:19:03.199Z,16.93
2018-12-23T11:20:03.770Z,16.94
2018-12-23T11:21:04.343Z,16.90
2018-12-23T11:22:04.914Z,17.01
2018-12-23T11:23:05.484Z,16.96
2018-12-23T11:24:06.056Z,17.04
2018-12-23T11:25:06.626Z,16.99
2018-12-23T11:26:07.199Z,16.97
2018-12-23T11:27:07.773Z,16.99
2018-12-23T11:28:08.348Z,16.96
2018-12-23T11:29:08.967Z,16.96
2018-12-23T11:30:09.539Z,16.99
2018-12-23T11:31:10.110Z,17.02
2018-12-23T11:32:10.683Z,16.97
2018-12-23T11:33:11.257Z,17.02
2018-12-23T11:34:11.979Z,16.99
2018-12-23T11:35:12.551Z,17.04
2018-12-23T11:36:13.122Z,16.99
2018-12-23T11:37:13.697Z,17.04
2018-12-23T11:38:14.317Z,17.02
2018-12-23T11:39:14.891Z,16.96
2018-12-23T11:40:15.466Z,17.02
2018-12-23T11:41:16.039Z,16.96
2018-12-23T11:42:16.612Z,16.96
2018-12-23T11:43:17.185Z,16.93
2018-12-23T11:44:17.800Z,16.93
2018-12-23T11:45:18.423Z,16.87
2018-12-23T11:46:19.045Z,16.90
2018-12-23T11:47:19.617Z,16.93
2018-12-23T11:48:20.190Z,16.89
2018-12-23T11:49:20.763Z,16.96
2018-12-23T11:50:21.338Z,16.91
2018-12-23T11:51:21.909Z,16.91
2018-12-23T11:52:23.336Z,16.90
2018-12-23T11:53:23.910Z,16.91
2018-12-23T11:54:24.529Z,16.87
2018-12-23T11:55:25.149Z,16.91
2018-12-23T11:56:25.720Z,16.94
2018-12-23T11:57:26.294Z,16.97
2018-12-23T11:58:26.867Z,16.94
2018-12-23T11:59:27.440Z,16.99
2018-12-23T12:03:32.722Z,16.97
2018-12-23T12:04:33.294Z,17.02
2018-12-23T12:05:33.866Z,16.94
2018-12-23T12:06:34.439Z,17.06
2018-12-23T12:07:35.011Z,16.99
2018-12-23T12:08:43.554Z,17.05
2018-12-23T12:09:36.193Z,17.09
2018-12-23T12:11:30.639Z,17.04
2018-12-23T12:12:31.265Z,17.08
2018-12-23T12:16:00.606Z,17.09
2018-12-23T12:17:01.179Z,17.14
2018-12-23T12:18:01.749Z,17.19
2018-12-23T12:19:41.366Z,17.14
2018-12-23T12:23:31.779Z,17.15
2018-12-23T12:24:32.398Z,17.16
2018-12-23T12:25:32.969Z,17.16
2018-12-23T12:26:33.541Z,17.22
2018-12-23T12:27:34.112Z,17.19
2018-12-23T12:28:34.684Z,17.22
2018-12-23T12:29:35.455Z,17.20
2018-12-23T12:30:36.127Z,17.19
2018-12-23T12:31:36.842Z,17.09
2018-12-23T12:32:37.412Z,17.19
2018-12-23T12:33:37.983Z,17.22
2018-12-23T12:34:38.557Z,17.20
2018-12-23T12:35:39.130Z,17.22
2018-12-23T12:36:39.703Z,17.22
2018-12-23T12:37:40.277Z,17.30
2018-12-23T12:38:40.852Z,17.27
2018-12-23T12:39:41.423Z,17.24
2018-12-23T12:40:42.095Z,17.27
2018-12-23T12:41:42.669Z,17.31
2018-12-23T12:42:43.285Z,17.29
2018-12-23T12:43:43.858Z,17.36
2018-12-23T12:44:44.432Z,17.38
2018-12-23T12:45:45.057Z,17.38
2018-12-23T12:46:45.630Z,17.34
2018-12-23T12:47:46.254Z,17.29
2018-12-23T12:48:46.827Z,17.30
2018-12-23T12:49:47.399Z,17.38
2018-12-23T12:50:47.972Z,17.31
2018-12-23T12:51:48.546Z,17.36
2018-12-23T12:52:49.169Z,17.31
2018-12-23T12:53:49.743Z,17.29
2018-12-23T12:54:50.315Z,17.30
2018-12-23T12:55:50.888Z,17.38
2018-12-23T12:56:51.462Z,17.36
2018-12-23T12:57:52.083Z,17.31
2018-12-23T12:58:52.655Z,17.30
2018-12-23T12:59:53.279Z,17.36
2018-12-23T13:00:53.853Z,17.39
2018-12-23T13:01:54.423Z,17.34
2018-12-23T13:02:54.996Z,17.41
2018-12-23T13:03:55.567Z,17.39
2018-12-23T13:04:56.139Z,17.24
2018-12-23T13:05:56.714Z,17.27
2018-12-23T13:06:57.287Z,17.30
2018-12-23T13:07:57.913Z,17.31
2018-12-23T13:09:00.630Z,17.46
2018-12-23T13:09:59.147Z,17.46
2018-12-23T13:10:59.720Z,17.34
2018-12-23T13:12:00.293Z,17.39
2018-12-23T13:13:00.865Z,17.39
2018-12-23T13:14:01.442Z,17.38
2018-12-23T13:15:02.061Z,17.34
2018-12-23T13:16:02.630Z,17.38
2018-12-23T13:17:03.206Z,17.36
2018-12-23T13:18:03.780Z,17.44
2018-12-23T13:19:04.402Z,17.39
2018-12-23T13:20:04.976Z,17.39
2018-12-23T13:21:05.551Z,17.34
2018-12-23T13:22:06.124Z,17.33
2018-12-23T13:23:06.697Z,17.34
2018-12-23T13:24:07.271Z,17.45
2018-12-23T13:25:07.844Z,17.36
2018-12-23T13:26:08.419Z,17.42
2018-12-23T13:27:09.041Z,17.44
2018-12-23T13:28:09.615Z,17.44
2018-12-23T13:29:10.188Z,17.42
2018-12-23T13:30:10.808Z,17.46
2018-12-23T13:31:11.380Z,17.48
2018-12-23T13:32:11.952Z,17.39
2018-12-23T13:33:12.527Z,17.46
2018-12-23T13:34:13.099Z,17.44
2018-12-23T13:35:13.675Z,17.48
2018-12-23T13:36:14.246Z,17.46
2018-12-23T13:37:14.869Z,17.46
2018-12-23T13:38:15.440Z,17.49
2018-12-23T13:39:16.013Z,17.48
2018-12-23T13:40:16.588Z,17.48
2018-12-23T13:41:17.160Z,17.49
2018-12-23T13:42:17.736Z,17.48
2018-12-23T13:43:18.459Z,17.52
2018-12-23T13:44:19.111Z,17.51
2018-12-23T13:45:19.681Z,17.51
2018-12-23T13:46:20.253Z,17.51
2018-12-23T13:47:20.827Z,17.49
2018-12-23T13:48:21.400Z,17.56
2018-12-23T13:49:21.977Z,17.49
2018-12-23T13:50:22.552Z,17.59
2018-12-23T13:51:23.128Z,17.56
2018-12-23T13:52:23.703Z,17.52
2018-12-23T13:53:24.278Z,17.51
2018-12-23T13:54:24.852Z,17.57
2018-12-23T13:55:25.429Z,17.54
2018-12-23T13:56:25.999Z,17.57
2018-12-23T13:57:26.621Z,17.57
2018-12-23T13:58:27.204Z,17.63
2018-12-23T13:59:27.768Z,17.56
2018-12-23T14:00:28.344Z,17.54
2018-12-23T14:01:29.117Z,17.60
2018-12-23T14:02:29.689Z,17.59
2018-12-23T14:03:30.263Z,17.67
2018-12-23T14:04:30.837Z,17.57
2018-12-23T14:05:31.458Z,17.63
2018-12-23T14:06:32.032Z,17.65
2018-12-23T14:07:32.603Z,17.64
2018-12-23T14:08:33.181Z,17.67
2018-12-23T14:09:33.750Z,17.59
2018-12-23T14:10:34.324Z,17.60
2018-12-23T14:11:34.896Z,17.59
2018-12-23T14:12:35.468Z,17.65
2018-12-23T14:13:36.043Z,17.63
2018-12-23T14:14:36.614Z,17.65
2018-12-23T14:15:37.191Z,17.63
2018-12-23T14:16:37.816Z,17.63
2018-12-23T14:17:38.392Z,17.60
2018-12-23T14:18:38.966Z,17.70
2018-12-23T14:19:39.590Z,17.68
2018-12-23T14:20:40.171Z,17.65
2018-12-23T14:21:40.748Z,17.68
2018-12-23T14:22:41.361Z,17.65
2018-12-23T14:23:41.937Z,17.72
2018-12-23T14:24:42.520Z,17.72
2018-12-23T14:25:43.132Z,17.72
2018-12-23T14:26:43.755Z,17.72
2018-12-23T14:27:44.330Z,17.74
2018-12-23T14:28:44.903Z,17.72
2018-12-23T14:29:45.527Z,17.68
2018-12-23T14:30:46.103Z,17.72
2018-12-23T14:31:46.678Z,17.78
2018-12-23T14:32:47.250Z,17.78
2018-12-23T14:33:47.873Z,17.76
2018-12-23T14:34:48.448Z,17.76
2018-12-23T14:35:49.039Z,17.71
2018-12-23T14:36:49.644Z,17.74
2018-12-23T14:37:50.269Z,17.74
2018-12-23T14:38:50.843Z,17.78
2018-12-23T14:39:51.417Z,17.76
2018-12-23T14:40:51.993Z,17.80
2018-12-23T14:41:54.526Z,17.72
2018-12-23T14:42:54.135Z,17.76
2018-12-23T14:43:54.710Z,17.82
2018-12-23T14:44:55.286Z,17.79
2018-12-23T14:45:55.858Z,17.82
2018-12-23T14:46:56.433Z,17.76
2018-12-23T14:47:57.008Z,17.79
2018-12-23T14:48:57.631Z,17.79
2018-12-23T14:49:58.206Z,17.80
2018-12-23T14:50:58.829Z,17.76
2018-12-23T14:51:59.402Z,17.74
2018-12-23T14:52:59.976Z,17.80
2018-12-23T14:54:00.550Z,17.78
2018-12-23T14:55:01.123Z,17.86
2018-12-23T14:56:01.698Z,17.85
2018-12-23T14:57:02.322Z,17.94
2018-12-23T14:58:02.897Z,17.78
2018-12-23T14:59:03.471Z,17.78
2018-12-23T15:00:04.099Z,17.83
2018-12-23T15:01:04.672Z,17.80
2018-12-23T15:02:05.248Z,17.79
2018-12-23T15:03:05.865Z,17.83
2018-12-23T15:04:06.445Z,17.82
2018-12-23T15:05:07.108Z,17.82
2018-12-23T15:06:07.686Z,17.78
2018-12-23T15:07:08.260Z,17.76
2018-12-23T15:08:08.843Z,17.79
2018-12-23T15:09:09.457Z,17.83
2018-12-23T15:10:10.084Z,17.82
2018-12-23T15:11:10.660Z,17.79
2018-12-23T15:12:11.235Z,17.86
2018-12-23T15:13:11.811Z,17.82
2018-12-23T15:14:12.443Z,17.87
2018-12-23T15:15:13.057Z,17.94
2018-12-23T15:16:13.634Z,17.80
2018-12-23T15:17:14.209Z,17.85
2018-12-23T15:18:14.836Z,17.82
2018-12-23T15:19:15.416Z,17.97
2018-12-23T15:20:15.990Z,17.83
2018-12-23T15:21:16.562Z,17.87
2018-12-23T15:22:17.140Z,17.98
2018-12-23T15:23:17.712Z,17.92
2018-12-23T15:24:18.286Z,17.85
2018-12-23T15:25:18.913Z,17.90
2018-12-23T15:26:19.490Z,17.90
2018-12-23T15:27:20.064Z,17.85
2018-12-23T15:28:20.639Z,17.85
2018-12-23T15:29:21.290Z,17.85
2018-12-23T15:30:21.822Z,17.90
2018-12-23T15:31:22.398Z,17.87
2018-12-23T15:32:22.970Z,17.86
2018-12-23T15:33:23.594Z,17.79
2018-12-23T15:34:24.368Z,17.83
2018-12-23T15:35:24.948Z,17.90
2018-12-23T15:36:25.517Z,17.90
2018-12-23T15:37:26.089Z,17.86
2018-12-23T15:38:26.662Z,17.86
2018-12-23T15:39:27.237Z,17.87
2018-12-23T15:40:27.812Z,17.89
2018-12-23T15:41:28.386Z,17.80
2018-12-23T15:42:28.961Z,17.82
2018-12-23T15:43:29.584Z,17.76
2018-12-23T15:44:30.158Z,17.80
2018-12-23T15:45:30.730Z,17.78
2018-12-23T15:46:31.353Z,17.74
2018-12-23T15:47:31.885Z,17.78
2018-12-23T15:48:32.460Z,17.82
2018-12-23T15:49:33.034Z,17.78
2018-12-23T15:50:33.658Z,17.79
2018-12-23T15:51:34.230Z,17.71
2018-12-23T15:52:34.854Z,17.78
2018-12-23T15:53:35.426Z,17.74
2018-12-23T15:54:36.000Z,17.71
2018-12-23T15:55:36.569Z,17.74
2018-12-23T15:56:37.146Z,17.71
2018-12-23T15:57:37.720Z,17.72
2018-12-23T15:58:38.331Z,17.76
2018-12-23T15:59:38.903Z,17.71
2018-12-23T16:00:39.475Z,17.71
2018-12-23T16:01:40.047Z,17.71
2018-12-23T16:02:40.671Z,17.64
2018-12-23T16:03:41.244Z,17.64
2018-12-23T16:04:41.817Z,17.65
2018-12-23T16:05:42.389Z,17.56
2018-12-23T16:06:42.961Z,17.60
2018-12-23T16:07:43.534Z,17.51
2018-12-23T16:08:44.106Z,17.48
2018-12-23T16:09:51.053Z,17.48
2018-12-23T16:10:46.293Z,17.42
2018-12-23T16:11:46.868Z,17.48
2018-12-23T16:12:47.439Z,17.33
2018-12-23T16:13:48.013Z,17.41
2018-12-23T16:14:48.634Z,17.41
2018-12-23T16:15:49.205Z,17.42
2018-12-23T16:16:49.779Z,17.39
2018-12-23T16:17:50.350Z,17.36
2018-12-23T16:18:50.923Z,17.36
2018-12-23T16:19:51.545Z,17.33
2018-12-23T16:20:52.116Z,17.34
2018-12-23T16:21:52.689Z,17.24
2018-12-23T16:22:53.261Z,17.34
2018-12-23T16:23:53.834Z,17.30
2018-12-23T16:24:54.405Z,17.34
2018-12-23T16:25:54.976Z,17.34
2018-12-23T16:26:55.601Z,17.26
2018-12-23T16:27:56.169Z,17.23
2018-12-23T16:28:56.743Z,17.29
2018-12-23T16:29:57.314Z,17.30
2018-12-23T16:30:57.887Z,17.26
2018-12-23T16:31:58.460Z,17.29
2018-12-23T16:32:59.031Z,17.11
2018-12-23T16:33:59.604Z,17.08
2018-12-23T16:35:00.188Z,17.15
2018-12-23T16:36:01.794Z,17.23
2018-12-23T16:37:01.361Z,17.19
2018-12-23T16:38:01.983Z,17.14
2018-12-23T16:39:02.607Z,17.26
2018-12-23T16:40:03.182Z,17.08
2018-12-23T16:41:03.795Z,17.22
2018-12-23T16:42:04.419Z,17.14
2018-12-23T16:43:04.992Z,17.22
2018-12-23T16:44:05.565Z,17.16
2018-12-23T16:45:06.134Z,17.15
2018-12-23T16:46:06.762Z,17.15
2018-12-23T16:47:07.326Z,17.15
2018-12-23T16:48:07.901Z,17.16
2018-12-23T16:49:08.469Z,17.16
2018-12-23T16:50:09.039Z,17.16
2018-12-23T16:51:09.612Z,17.16
2018-12-23T16:52:10.181Z,17.20
2018-12-23T16:53:10.752Z,17.09
2018-12-23T16:54:11.373Z,17.19
2018-12-23T16:55:11.944Z,17.08
2018-12-23T16:56:12.516Z,17.11
2018-12-23T16:57:13.085Z,17.11
2018-12-23T16:58:13.656Z,17.04
2018-12-23T16:59:14.227Z,17.02
2018-12-23T17:00:14.800Z,17.02
2018-12-23T17:01:15.372Z,17.08
2018-12-23T17:02:15.938Z,17.04
2018-12-23T17:03:16.558Z,16.99
2018-12-23T17:04:17.180Z,16.99
2018-12-23T17:05:17.751Z,17.02
2018-12-23T17:06:18.323Z,17.02
2018-12-23T17:07:18.892Z,16.99
2018-12-23T17:08:19.461Z,16.93
2018-12-23T17:09:20.035Z,16.97
2018-12-23T17:10:20.603Z,16.97
2018-12-23T17:11:21.180Z,16.89
2018-12-23T17:12:21.741Z,16.90
2018-12-23T17:13:22.312Z,16.94
2018-12-23T17:14:22.881Z,16.93
2018-12-23T17:15:23.601Z,16.90
2018-12-23T17:16:24.221Z,16.96
2018-12-23T17:17:24.792Z,16.94
2018-12-23T17:18:25.361Z,16.93
2018-12-23T17:19:25.932Z,16.99
2018-12-23T17:20:26.505Z,16.96
2018-12-23T17:21:27.074Z,17.01
2018-12-23T17:22:27.886Z,16.94
2018-12-23T17:23:28.507Z,16.93
2018-12-23T17:24:29.078Z,16.93
2018-12-23T17:25:29.648Z,16.96
2018-12-23T17:26:30.217Z,16.91
2018-12-23T17:27:30.787Z,16.97
2018-12-23T17:28:31.359Z,16.86
2018-12-23T17:29:31.927Z,16.93
2018-12-23T17:30:32.494Z,16.87
2018-12-23T17:31:33.065Z,16.91
2018-12-23T17:32:33.634Z,16.90
2018-12-23T17:33:34.202Z,16.79
2018-12-23T17:34:34.772Z,16.83
2018-12-23T17:35:35.392Z,16.90
2018-12-23T17:36:35.960Z,16.90
2018-12-23T17:37:36.579Z,16.93
2018-12-23T17:38:37.148Z,16.83
2018-12-23T17:39:37.769Z,16.91
2018-12-23T17:40:38.338Z,16.93
2018-12-23T17:41:38.906Z,16.81